Sea Wolf — WDD9887 — position and weather

sailwx.info

Track history (hours):
 
Tides and Currents Weather Stations Pressure Air Temp Water Temp Dewpoint Dewpoint Depression Visibility Wind Speed Wind Dir Waves Ship Positions

Sea Wolf

Owner: GARBOR BROS INC, MORGAN CITY, LA. More information available from US FCC via Universal Licensing System and Coast Guard Vessel Documentation Center.

Last reported at 2018-May-25 00:20 UTC. Time now 2018-May-25 00:54 UTC.
Position N 29°38' W 094°57'.

Length 26 m.

Type: Towing. MMSI: 367317630.

Date/timePositionNaut miles runAvg speedWind from/ knotsBaromVisibWave heightAir tempDewpointWater temp
2018-May-25 00:20N 29°38' W 094°57'0 0.0
2018-May-24 23:52N 29°38' W 094°57'0 0.0
2018-May-24 23:30N 29°38' W 094°57'0 0.0
2018-May-24 22:59N 29°38' W 094°57'1 2.2
2018-May-24 22:30N 29°37' W 094°57'0 0.2
2018-May-24 22:00N 29°37' W 094°57'0 0.0
2018-May-24 21:29N 29°37' W 094°57'0 0.6
2018-May-24 20:58N 29°37' W 094°57'1 2.6
2018-May-24 20:30N 29°38' W 094°58'2 4.3
2018-May-24 20:00N 29°37' W 094°60'1 1.7
2018-May-24 19:30N 29°37' W 095°01'0 0.0
2018-May-24 19:00N 29°37' W 095°01'1 1.0
2018-May-24 18:10N 29°37' W 094°60'0 0.2
2018-May-24 17:59N 29°37' W 094°60'2 3.3
2018-May-24 17:29N 29°37' W 094°58'0 0.0
2018-May-24 17:00N 29°37' W 094°58'1 1.5
2018-May-24 16:30N 29°37' W 094°57'0 0.8
2018-May-24 15:58N 29°37' W 094°58'0 0.8
2018-May-24 15:30N 29°37' W 094°58'0 0.2
2018-May-24 15:00N 29°37' W 094°58'0 0.2
2018-May-24 14:30N 29°37' W 094°58'1 1.8
2018-May-24 13:59N 29°38' W 094°57'0 0.0
2018-May-24 13:28N 29°38' W 094°57'0 0.0
2018-May-24 08:46N 29°38' W 094°57'0 0.0
2018-May-24 08:30N 29°38' W 094°57'0 0.0
2018-May-24 08:00N 29°38' W 094°57'0 0.0
2018-May-24 07:19N 29°38' W 094°57'0 0.0
2018-May-24 06:59N 29°38' W 094°57'0 0.0
2018-May-24 06:14N 29°38' W 094°57'0 0.0
2018-May-24 05:49N 29°38' W 094°57'0 0.0
2018-May-24 05:27N 29°38' W 094°57'0 0.0
2018-May-24 04:57N 29°38' W 094°57'0 0.0
2018-May-24 04:25N 29°38' W 094°57'0 0.0
2018-May-24 03:57N 29°38' W 094°57'0 0.0
2018-May-24 03:16N 29°38' W 094°57'0 0.0
2018-May-24 03:00N 29°38' W 094°57'0 0.0
2018-May-24 02:30N 29°38' W 094°57'0 0.0
2018-May-24 01:47N 29°38' W 094°57'0 0.0
2018-May-24 01:22N 29°38' W 094°57'0 0.0
2018-May-24 00:56N 29°38' W 094°57'0 0.0
2018-May-24 00:30N 29°38' W 094°57'0 0.0
2018-May-24 00:00N 29°38' W 094°57'0 0.0
2018-May-23 23:30N 29°38' W 094°57'0 0.0
2018-May-23 22:54N 29°38' W 094°57'0 0.0
2018-May-23 22:30N 29°38' W 094°57'0 0.0
2018-May-23 21:56N 29°38' W 094°57'0 0.2
2018-May-23 21:30N 29°38' W 094°57'2 3.8
2018-May-23 21:00N 29°37' W 094°59'0 1.0
2018-May-23 20:30N 29°37' W 094°60'0 0.0
2018-May-23 20:00N 29°37' W 094°60'1 1.3
2018-May-23 19:30N 29°37' W 095°01'0 0.4
2018-May-23 19:00N 29°37' W 095°01'1 1.7
2018-May-23 18:29N 29°37' W 094°60'2 4.3
2018-May-23 18:00N 29°38' W 094°58'0 0.2
2018-May-23 17:30N 29°38' W 094°58'1 2.0
2018-May-23 16:59N 29°37' W 094°57'0 0.0
2018-May-23 16:30N 29°37' W 094°57'0 0.7
2018-May-23 15:57N 29°37' W 094°57'1 1.2
2018-May-23 15:30N 29°37' W 094°56'0 0.5
2018-May-23 14:59N 29°37' W 094°56'0 0.2
2018-May-23 14:30N 29°37' W 094°57'1 1.0
2018-May-23 14:00N 29°37' W 094°57'1 2.2
2018-May-23 13:29N 29°38' W 094°58'1 1.7
2018-May-23 13:00N 29°37' W 094°58'2 3.8
2018-May-23 12:30N 29°37' W 094°60'1 2.5
2018-May-23 12:00N 29°37' W 094°58'1 1.9
2018-May-23 11:30N 29°37' W 094°59'0 0.7
2018-May-23 10:58N 29°37' W 094°60'0 0.0
2018-May-23 10:24N 29°37' W 094°60'0 0.0
2018-May-23 09:57N 29°37' W 094°60'0 0.0
2018-May-23 09:27N 29°37' W 094°60'0 0.0
2018-May-23 08:56N 29°37' W 094°60'0 0.0
2018-May-23 08:25N 29°37' W 094°60'0 0.0
2018-May-23 07:41N 29°37' W 094°60'0 0.0
2018-May-23 07:22N 29°37' W 094°60'0 0.0
2018-May-23 06:53N 29°37' W 094°60'0 0.0
2018-May-23 06:28N 29°37' W 094°60'0 0.0
2018-May-23 06:00N 29°37' W 094°60'0 0.0
2018-May-23 05:20N 29°37' W 094°60'0 0.0
2018-May-23 04:37N 29°37' W 094°60'0 0.0
2018-May-23 04:21N 29°37' W 094°60'0 0.0
2018-May-23 04:00N 29°37' W 094°60'0 0.0
2018-May-23 03:30N 29°37' W 094°60'0 0.0
2018-May-23 02:58N 29°37' W 094°60'0 0.0
2018-May-23 02:30N 29°37' W 094°60'0 0.0
2018-May-23 02:00N 29°37' W 094°60'1 2.3
2018-May-23 01:30N 29°37' W 094°59'1 2.2
2018-May-23 01:00N 29°37' W 094°60'0 0.0
2018-May-23 00:30N 29°37' W 094°60'0 0.0
2018-May-22 23:59N 29°37' W 094°60'0 0.0
2018-May-22 23:30N 29°37' W 094°60'1 1.4
2018-May-22 23:00N 29°37' W 094°59'0 0.9
2018-May-22 22:30N 29°37' W 094°60'0 0.5
2018-May-22 22:00N 29°37' W 094°60'0 0.0
2018-May-22 21:30N 29°37' W 094°60'0 0.0
2018-May-22 20:59N 29°37' W 094°60'0 0.0
2018-May-22 20:30N 29°37' W 094°60'0 0.0
2018-May-22 20:00N 29°37' W 094°60'0 0.0
2018-May-22 19:30N 29°37' W 094°60'0 0.0
2018-May-22 19:00N 29°37' W 094°60'0 0.0
2018-May-22 18:30N 29°37' W 094°60'0 0.0
2018-May-22 18:00N 29°37' W 094°60'0 0.0
2018-May-22 17:30N 29°37' W 094°60'0 0.0
2018-May-22 17:00N 29°37' W 094°60'2 4.3
2018-May-22 16:29N 29°37' W 094°57'0 0.1
2018-May-22 15:57N 29°37' W 094°57'2 5.0
2018-May-22 15:30N 29°37' W 094°60'0 0.0
2018-May-22 15:00N 29°37' W 094°60'0 0.0
2018-May-22 14:28N 29°37' W 094°60'0 0.0
2018-May-22 13:59N 29°37' W 094°60'0 0.0
2018-May-22 13:30N 29°37' W 094°60'0 0.0
2018-May-22 13:00N 29°37' W 094°60'0 0.0
2018-May-22 12:30N 29°37' W 094°60'0 0.0
2018-May-22 12:00N 29°37' W 094°60'2 3.3
2018-May-22 11:30N 29°37' W 094°58'2 3.2
2018-May-22 11:00N 29°37' W 094°60'0 0.0
2018-May-22 10:30N 29°37' W 094°60'0 0.0
2018-May-22 10:00N 29°37' W 094°60'0 0.0
2018-May-22 09:29N 29°37' W 094°60'0 0.0
2018-May-22 09:00N 29°37' W 094°60'0 0.0
2018-May-22 08:29N 29°37' W 094°60'0 0.0
2018-May-22 08:00N 29°37' W 094°60'0 0.0
2018-May-22 07:29N 29°37' W 094°60'0 0.0
2018-May-22 07:00N 29°37' W 094°60'0 0.0
2018-May-22 06:30N 29°37' W 094°60'0 0.0
2018-May-22 05:57N 29°37' W 094°60'0 0.0
2018-May-22 05:30N 29°37' W 094°60'0 0.0
2018-May-22 05:00N 29°37' W 094°60'0 0.0
2018-May-22 04:30N 29°37' W 094°60'0 0.0
2018-May-22 04:00N 29°37' W 094°60'0 0.0
2018-May-22 03:30N 29°37' W 094°60'0 0.0
2018-May-22 03:00N 29°37' W 094°60'0 0.0
2018-May-22 02:30N 29°37' W 094°60'0 0.0
2018-May-22 02:00N 29°37' W 094°60'0 0.0
2018-May-22 01:30N 29°37' W 094°60'0 0.0
2018-May-22 01:00N 29°37' W 094°60'0 0.0
2018-May-22 00:29N 29°37' W 094°60'2 3.4
2018-May-22 00:00N 29°37' W 094°58'2 3.2
2018-May-21 23:30N 29°37' W 094°60'0 0.0
2018-May-21 23:00N 29°37' W 094°60'0 0.0
2018-May-21 22:28N 29°37' W 094°60'0 0.0
2018-May-21 21:59N 29°37' W 094°60'0 0.0
2018-May-21 21:30N 29°37' W 094°60'0 0.0
2018-May-21 20:31N 29°37' W 094°60'0 0.0
2018-May-21 20:26N 29°37' W 094°60'2 4.1
2018-May-21 19:58N 29°37' W 094°58'0 0.7
2018-May-21 19:28N 29°37' W 094°57'0 0.8
2018-May-21 19:00N 29°37' W 094°57'0 0.9
2018-May-21 18:29N 29°38' W 094°57'1 2.1
2018-May-21 18:00N 29°37' W 094°58'2 2.3
2018-May-21 17:20N 29°37' W 094°60'0 0.2
2018-May-21 17:00N 29°37' W 094°60'2 4.3
2018-May-21 16:30N 29°37' W 094°57'0 0.0
2018-May-21 16:00N 29°37' W 094°57'2 4.2
2018-May-21 15:29N 29°37' W 094°60'0 0.0
2018-May-21 15:00N 29°37' W 094°60'0 0.0
2018-May-21 14:29N 29°37' W 094°60'2 3.7
2018-May-21 13:54N 29°37' W 094°57'0 0.2
2018-May-21 13:30N 29°37' W 094°57'2 4.3
2018-May-21 13:00N 29°37' W 094°60'0 0.1
2018-May-21 12:30N 29°37' W 094°60'1 2.0
2018-May-21 12:00N 29°37' W 095°01'2 4.1
2018-May-21 11:30N 29°37' W 094°59'1 2.3
2018-May-21 11:00N 29°37' W 094°57'0 0.0
2018-May-21 10:30N 29°37' W 094°57'0 0.0
2018-May-21 10:00N 29°37' W 094°57'0 0.0
2018-May-21 09:30N 29°37' W 094°57'0 0.0
2018-May-21 09:00N 29°37' W 094°57'0 0.0
2018-May-21 08:30N 29°37' W 094°57'0 0.0
2018-May-21 08:00N 29°37' W 094°57'0 0.0
2018-May-21 07:30N 29°37' W 094°57'0 0.0
2018-May-21 07:00N 29°37' W 094°57'0 0.0
2018-May-21 06:30N 29°37' W 094°57'0 0.0
2018-May-21 06:00N 29°37' W 094°57'0 0.0
2018-May-21 05:30N 29°37' W 094°57'0 0.0
2018-May-21 05:00N 29°37' W 094°57'0 0.0
2018-May-21 04:30N 29°37' W 094°57'0 0.3
2018-May-21 04:00N 29°37' W 094°57'1 1.9
2018-May-21 03:30N 29°38' W 094°57'1 1.8
2018-May-21 03:00N 29°37' W 094°57'1 2.3
2018-May-21 02:30N 29°37' W 094°59'2 3.5
2018-May-21 02:00N 29°37' W 095°01'0 0.3
2018-May-21 01:30N 29°37' W 095°01'0 0.1
2018-May-21 00:58N 29°37' W 095°01'0 0.1
2018-May-21 00:29N 29°37' W 095°01'0 0.1
2018-May-21 00:00N 29°37' W 095°01'0 0.0
2018-May-20 23:30N 29°37' W 095°01'0 0.0
2018-May-20 23:00N 29°37' W 095°01'0 0.0
2018-May-20 22:20N 29°37' W 095°01'0 0.0
2018-May-20 22:00N 29°37' W 095°01'0 0.0
2018-May-20 21:30N 29°37' W 095°01'0 0.0
2018-May-20 20:43N 29°37' W 095°01'0 0.0
2018-May-20 20:24N 29°37' W 095°01'0 0.0
2018-May-20 20:00N 29°37' W 095°01'0 0.0
2018-May-20 19:30N 29°37' W 095°01'0 0.0
2018-May-20 19:00N 29°37' W 095°01'0 0.0
2018-May-20 18:30N 29°37' W 095°01'0 0.0
2018-May-20 18:00N 29°37' W 095°01'1 1.1
2018-May-20 17:30N 29°37' W 095°00'0 0.0
2018-May-20 17:00N 29°37' W 095°00'0 0.0
2018-May-20 16:30N 29°37' W 095°00'0 0.0
2018-May-20 16:00N 29°37' W 095°00'1 1.1
2018-May-20 15:30N 29°37' W 095°01'0 0.0
2018-May-20 15:00N 29°37' W 095°01'0 0.0
2018-May-20 14:30N 29°37' W 095°01'0 0.0
2018-May-20 13:40N 29°37' W 095°01'0 0.0
2018-May-20 13:23N 29°37' W 095°01'0 0.0
2018-May-20 13:00N 29°37' W 095°01'0 0.0
2018-May-20 12:30N 29°37' W 095°01'0 0.0
2018-May-20 12:00N 29°37' W 095°01'0 0.0
2018-May-20 11:26N 29°37' W 095°01'0 0.1
2018-May-20 11:00N 29°37' W 095°01'0 0.0
2018-May-20 10:30N 29°37' W 095°01'0 0.0
2018-May-20 10:01N 29°37' W 095°01'0 0.0
2018-May-20 09:31N 29°37' W 095°01'0 0.0
2018-May-20 09:01N 29°37' W 095°01'0 0.0
2018-May-20 08:30N 29°37' W 095°01'0 0.0
2018-May-20 08:00N 29°37' W 095°01'0 0.0
2018-May-20 07:31N 29°37' W 095°01'1 1.7
2018-May-20 07:01N 29°37' W 094°60'0 0.7
2018-May-20 06:31N 29°37' W 095°00'0 0.0
2018-May-20 06:01N 29°37' W 095°00'0 0.0
2018-May-20 05:30N 29°37' W 095°00'0 0.0
2018-May-20 05:01N 29°37' W 095°00'0 0.6
2018-May-20 04:30N 29°37' W 094°60'1 1.6
2018-May-20 04:01N 29°37' W 095°01'0 0.0
2018-May-20 03:30N 29°37' W 095°01'0 0.0
2018-May-20 03:01N 29°37' W 095°01'0 0.0
2018-May-20 02:31N 29°37' W 095°01'0 0.0
2018-May-20 02:00N 29°37' W 095°01'0 0.0
2018-May-20 01:30N 29°37' W 095°01'0 0.0
2018-May-20 01:01N 29°37' W 095°01'0 0.0
2018-May-20 00:30N 29°37' W 095°01'0 0.0
2018-May-20 00:00N 29°37' W 095°01'0 0.0
2018-May-19 23:31N 29°37' W 095°01'0 0.0
2018-May-19 23:01N 29°37' W 095°01'0 0.0
2018-May-19 22:31N 29°37' W 095°01'0 0.0
2018-May-19 22:00N 29°37' W 095°01'0 0.0
2018-May-19 21:31N 29°37' W 095°01'0 0.0
2018-May-19 21:01N 29°37' W 095°01'0 0.0
2018-May-19 20:29N 29°37' W 095°01'0 0.0
2018-May-19 20:00N 29°37' W 095°01'0 0.0
2018-May-19 19:31N 29°37' W 095°01'0 0.0
2018-May-19 19:00N 29°37' W 095°01'0 0.0
2018-May-19 18:31N 29°37' W 095°01'0 0.0
2018-May-19 18:01N 29°37' W 095°01'0 0.0
2018-May-19 17:31N 29°37' W 095°01'0 0.0
2018-May-19 17:01N 29°37' W 095°01'0 0.0
2018-May-19 16:30N 29°37' W 095°01'0 0.0
2018-May-19 15:59N 29°37' W 095°01'0 0.0
2018-May-19 15:29N 29°37' W 095°01'0 0.0
2018-May-19 15:01N 29°37' W 095°01'0 0.0
2018-May-19 14:30N 29°37' W 095°01'0 0.0
2018-May-19 14:01N 29°37' W 095°01'0 0.0
2018-May-19 13:30N 29°37' W 095°01'0 0.0
2018-May-19 13:00N 29°37' W 095°01'0 0.1
2018-May-19 12:28N 29°37' W 095°01'0 0.0
2018-May-19 12:00N 29°37' W 095°01'0 0.0
2018-May-19 11:31N 29°37' W 095°01'0 0.0
2018-May-19 11:01N 29°37' W 095°01'0 0.0
2018-May-19 10:31N 29°37' W 095°01'0 0.0
2018-May-19 10:01N 29°37' W 095°01'1 1.3
2018-May-19 09:31N 29°37' W 095°00'0 0.0
2018-May-19 08:59N 29°37' W 095°00'0 0.0
2018-May-19 08:30N 29°37' W 095°00'0 0.0
2018-May-19 08:01N 29°37' W 095°00'1 1.3
2018-May-19 07:30N 29°37' W 095°01'0 0.0
2018-May-19 07:01N 29°37' W 095°01'0 0.0
2018-May-19 06:31N 29°37' W 095°01'0 0.0
2018-May-19 06:01N 29°37' W 095°01'0 0.0
2018-May-19 05:31N 29°37' W 095°01'0 0.0
2018-May-19 05:01N 29°37' W 095°01'1 1.3
2018-May-19 04:31N 29°37' W 095°00'0 0.0
2018-May-19 04:00N 29°37' W 095°00'1 1.3
2018-May-19 03:31N 29°37' W 095°01'0 0.0
2018-May-19 03:01N 29°37' W 095°01'0 0.0
2018-May-19 02:31N 29°37' W 095°01'0 0.1
2018-May-19 02:00N 29°37' W 095°01'3 5.9
2018-May-19 01:30N 29°38' W 094°58'6 0.7
2018-May-18 16:26N 29°43' W 095°01'4 8.1
2018-May-18 15:59N 29°40' W 094°59'3 7.2
2018-May-18 15:30N 29°37' W 094°59'2 3.6
2018-May-18 14:59N 29°37' W 095°01'0 0.0
2018-May-18 14:31N 29°37' W 095°01'0 0.0
2018-May-18 14:01N 29°37' W 095°01'0 0.1
2018-May-18 13:30N 29°37' W 095°01'1 1.7
2018-May-18 13:00N 29°37' W 094°60'0 0.0
2018-May-18 12:30N 29°37' W 094°60'0 0.0
2018-May-18 12:01N 29°37' W 094°60'0 0.0
2018-May-18 11:30N 29°37' W 094°60'0 0.0
2018-May-18 11:01N 29°37' W 094°60'0 0.0
2018-May-18 10:29N 29°37' W 094°60'0 0.0
2018-May-18 10:00N 29°37' W 094°60'0 0.0
2018-May-18 09:30N 29°37' W 094°60'0 0.0
2018-May-18 08:59N 29°37' W 094°60'0 0.0
2018-May-18 08:30N 29°37' W 094°60'0 0.0
2018-May-18 08:01N 29°37' W 094°60'0 0.0
2018-May-18 07:29N 29°37' W 094°60'0 0.0
2018-May-18 07:00N 29°37' W 094°60'0 0.1
2018-May-18 06:30N 29°37' W 094°60'0 0.0
2018-May-18 06:00N 29°37' W 094°60'0 0.0
2018-May-18 05:27N 29°37' W 094°60'0 0.0
2018-May-18 05:00N 29°37' W 094°60'0 0.0
2018-May-18 04:30N 29°37' W 094°60'0 0.1
2018-May-18 04:00N 29°37' W 094°60'0 0.0
2018-May-18 03:29N 29°37' W 094°60'0 0.0
2018-May-18 03:00N 29°37' W 094°60'0 0.0
2018-May-18 02:30N 29°37' W 094°60'1 2.5
2018-May-18 02:00N 29°37' W 094°58'1 2.4
2018-May-18 01:30N 29°38' W 094°57'1 2.9
2018-May-18 01:00N 29°37' W 094°59'2 3.8
2018-May-18 00:30N 29°37' W 095°01'1 2.5
2018-May-18 00:00N 29°37' W 094°59'2 3.7
2018-May-17 23:30N 29°37' W 094°57'0 0.5
2018-May-17 22:54N 29°36' W 094°57'0 0.9
2018-May-17 22:30N 29°37' W 094°57'0 0.8
2018-May-17 22:00N 29°36' W 094°57'0 0.2
2018-May-17 21:30N 29°36' W 094°57'0 0.1
2018-May-17 20:59N 29°36' W 094°57'0 0.0
2018-May-17 20:30N 29°36' W 094°57'0 0.0
2018-May-17 19:59N 29°36' W 094°57'0 0.0
2018-May-17 19:29N 29°36' W 094°57'0 0.0
2018-May-17 18:57N 29°36' W 094°57'1 1.3
2018-May-17 18:29N 29°37' W 094°57'1 1.7
2018-May-17 18:00N 29°38' W 094°57'0 0.0
2018-May-17 17:30N 29°38' W 094°57'0 0.3
2018-May-17 16:59N 29°38' W 094°57'1 1.5
2018-May-17 16:05N 29°36' W 094°57'0 0.0
2018-May-17 15:52N 29°36' W 094°57'1 2.7
2018-May-17 15:31N 29°37' W 094°57'0 0.0
2018-May-17 15:01N 29°37' W 094°57'0 0.0
2018-May-17 14:30N 29°37' W 094°57'0 0.5
2018-May-17 14:01N 29°37' W 094°57'2 4.0
2018-May-17 13:30N 29°37' W 094°60'0 0.1
2018-May-17 13:00N 29°37' W 094°60'2 3.3
2018-May-17 12:30N 29°37' W 094°58'1 1.8
2018-May-17 12:00N 29°38' W 094°57'1 1.5
2018-May-17 11:31N 29°37' W 094°57'1 0.6
2018-May-17 10:15N 29°38' W 094°57'0 0.0
2018-May-17 09:53N 29°38' W 094°57'0 0.0
2018-May-17 09:27N 29°38' W 094°57'0 0.0
2018-May-17 08:33N 29°38' W 094°57'0 0.0
2018-May-17 08:15N 29°38' W 094°57'0 0.0
2018-May-17 07:49N 29°38' W 094°57'0 0.0
2018-May-17 06:41N 29°38' W 094°57'0 0.0
2018-May-17 06:29N 29°38' W 094°57'0 0.0
2018-May-17 05:53N 29°38' W 094°57'0 0.0
2018-May-17 05:30N 29°38' W 094°57'0 0.0
2018-May-17 05:00N 29°38' W 094°57'0 0.0
2018-May-17 04:20N 29°38' W 094°57'0 0.0
2018-May-17 03:55N 29°38' W 094°57'0 0.0
2018-May-17 03:31N 29°38' W 094°57'0 0.0
2018-May-17 03:00N 29°38' W 094°57'0 0.0
2018-May-17 02:27N 29°38' W 094°57'1 2.7
2018-May-17 02:00N 29°36' W 094°57'2 4.8
2018-May-17 01:31N 29°37' W 094°60'0 0.0
2018-May-17 01:01N 29°37' W 094°60'0 0.0
2018-May-17 00:30N 29°37' W 094°60'0 0.0
2018-May-17 00:00N 29°37' W 094°60'0 0.0
2018-May-16 23:30N 29°37' W 094°60'2 4.2
2018-May-16 23:01N 29°37' W 094°57'2 3.0
2018-May-16 22:30N 29°37' W 094°59'2 3.0
2018-May-16 22:00N 29°38' W 094°58'0 0.5
2018-May-16 21:25N 29°38' W 094°57'0 0.0
2018-May-16 21:00N 29°38' W 094°57'0 0.0
2018-May-16 20:22N 29°38' W 094°57'0 0.0
2018-May-16 20:00N 29°38' W 094°57'0 0.0
2018-May-16 19:27N 29°38' W 094°57'0 0.0
2018-May-16 18:59N 29°38' W 094°57'0 0.0
2018-May-16 18:31N 29°38' W 094°57'0 0.0
2018-May-16 17:59N 29°38' W 094°57'0 0.0
2018-May-16 17:25N 29°38' W 094°57'0 0.3
2018-May-16 16:59N 29°38' W 094°57'1 2.6
2018-May-16 16:29N 29°36' W 094°57'0 0.0
2018-May-16 16:00N 29°36' W 094°57'0 0.0
2018-May-16 15:31N 29°36' W 094°57'2 3.3
2018-May-16 14:47N 29°37' W 094°60'1 2.3
2018-May-16 14:31N 29°37' W 094°59'2 3.6
2018-May-16 14:00N 29°38' W 094°57'0 0.0
2018-May-16 13:30N 29°38' W 094°57'0 0.0
2018-May-16 13:00N 29°38' W 094°57'0 0.0
2018-May-16 12:30N 29°38' W 094°57'0 0.0
2018-May-16 12:00N 29°38' W 094°57'1 1.3
2018-May-16 11:31N 29°37' W 094°57'2 4.3
2018-May-16 11:00N 29°37' W 094°60'0 0.0
2018-May-16 10:30N 29°37' W 094°60'0 0.0
2018-May-16 10:01N 29°37' W 094°60'0 0.0
2018-May-16 09:30N 29°37' W 094°60'0 0.0
2018-May-16 09:00N 29°37' W 094°60'0 0.0
2018-May-16 07:41N 29°37' W 094°60'0 0.0
2018-May-16 07:30N 29°37' W 094°60'0 0.0
2018-May-16 07:00N 29°37' W 094°60'0 0.0
2018-May-16 06:30N 29°37' W 094°60'0 0.0
2018-May-16 06:00N 29°37' W 094°60'0 0.0
2018-May-16 05:30N 29°37' W 094°60'0 0.0
2018-May-16 05:00N 29°37' W 094°60'0 0.0
2018-May-16 04:30N 29°37' W 094°60'0 0.0
2018-May-16 04:00N 29°37' W 094°60'0 0.0
2018-May-16 03:30N 29°37' W 094°60'0 0.0
2018-May-16 03:00N 29°37' W 094°60'0 0.0
2018-May-16 02:29N 29°37' W 094°60'0 0.0
2018-May-16 02:00N 29°37' W 094°60'0 0.0
2018-May-16 01:30N 29°37' W 094°60'0 0.0
2018-May-16 01:00N 29°37' W 094°60'0 0.0
2018-May-16 00:30N 29°37' W 094°60'0 0.0
2018-May-16 00:00N 29°37' W 094°60'0 0.0
2018-May-15 23:30N 29°37' W 094°60'0 0.8
2018-May-15 23:00N 29°37' W 094°59'2 3.9
2018-May-15 22:30N 29°38' W 094°57'0 0.2
2018-May-15 22:00N 29°38' W 094°57'0 0.1
2018-May-15 21:30N 29°38' W 094°57'0 0.4
2018-May-15 21:00N 29°38' W 094°57'2 4.7
2018-May-15 20:30N 29°37' W 094°60'0 0.0
2018-May-15 20:00N 29°37' W 094°60'0 0.0
2018-May-15 19:27N 29°37' W 094°60'0 0.0
2018-May-15 19:00N 29°37' W 094°60'2 4.2
2018-May-15 18:30N 29°37' W 094°58'0 1.0
2018-May-15 18:00N 29°38' W 094°57'1 2.4
2018-May-15 17:30N 29°36' W 094°57'0 0.2
2018-May-15 17:00N 29°37' W 094°57'0 0.5
2018-May-15 16:26N 29°37' W 094°57'0 0.1
2018-May-15 16:00N 29°37' W 094°57'1 2.1
2018-May-15 15:26N 29°38' W 094°57'0 0.3
2018-May-15 14:46N 29°38' W 094°58'0 0.7
2018-May-15 14:26N 29°38' W 094°57'1 2.9
2018-May-15 14:00N 29°37' W 094°57'1 2.2
2018-May-15 13:30N 29°38' W 094°57'0 0.0
2018-May-15 13:00N 29°38' W 094°57'0 0.0
2018-May-15 12:30N 29°38' W 094°57'0 0.0
2018-May-15 12:00N 29°38' W 094°57'0 0.1
2018-May-15 11:30N 29°38' W 094°57'0 0.7
2018-May-15 11:00N 29°37' W 094°57'0 0.6
2018-May-15 10:29N 29°38' W 094°57'0 0.0
2018-May-15 10:00N 29°38' W 094°57'0 0.0
2018-May-15 09:30N 29°38' W 094°57'0 0.0
2018-May-15 09:00N 29°38' W 094°57'0 0.0
2018-May-15 08:30N 29°38' W 094°57'0 0.0
2018-May-15 08:00N 29°38' W 094°57'0 0.0
2018-May-15 07:29N 29°38' W 094°57'0 0.0
2018-May-15 07:00N 29°38' W 094°57'0 0.0
2018-May-15 06:30N 29°38' W 094°57'0 0.0
2018-May-15 06:00N 29°38' W 094°57'0 0.0
2018-May-15 05:30N 29°38' W 094°57'0 0.0
2018-May-15 05:00N 29°38' W 094°57'0 0.0
2018-May-15 04:30N 29°38' W 094°57'0 0.0
2018-May-15 04:00N 29°38' W 094°57'0 0.0
2018-May-15 03:30N 29°38' W 094°57'0 0.0
2018-May-15 03:00N 29°38' W 094°57'0 0.0
2018-May-15 02:30N 29°38' W 094°57'0 0.0
2018-May-15 02:00N 29°38' W 094°57'0 0.0
2018-May-15 01:30N 29°38' W 094°57'0 0.0
2018-May-15 01:00N 29°38' W 094°57'0 0.0
2018-May-15 00:30N 29°38' W 094°57'  
Track history (hours):
 
Tides and Currents Weather Stations Pressure Air Temp Water Temp Dewpoint Dewpoint Depression Visibility Wind Speed Wind Dir Waves Ship Positions

Sea Wolf

Owner: GARBOR BROS INC, MORGAN CITY, LA. More information available from US FCC via Universal Licensing System and Coast Guard Vessel Documentation Center.

Last reported at 2018-May-25 00:20 UTC. Time now 2018-May-25 00:54 UTC.
Position N 29°38' W 094°57'.

Length 26 m.

Type: Towing. MMSI: 367317630.

Date/timePositionNaut miles runAvg speedWind from/ knotsBaromVisibWave heightAir tempDewpointWater temp
2018-May-25 00:20N 29°38' W 094°57'0 0.0
2018-May-24 23:52N 29°38' W 094°57'0 0.0
2018-May-24 23:30N 29°38' W 094°57'0 0.0
2018-May-24 22:59N 29°38' W 094°57'1 2.2
2018-May-24 22:30N 29°37' W 094°57'0 0.2
2018-May-24 22:00N 29°37' W 094°57'0 0.0
2018-May-24 21:29N 29°37' W 094°57'0 0.6
2018-May-24 20:58N 29°37' W 094°57'1 2.6
2018-May-24 20:30N 29°38' W 094°58'2 4.3
2018-May-24 20:00N 29°37' W 094°60'1 1.7
2018-May-24 19:30N 29°37' W 095°01'0 0.0
2018-May-24 19:00N 29°37' W 095°01'1 1.0
2018-May-24 18:10N 29°37' W 094°60'0 0.2
2018-May-24 17:59N 29°37' W 094°60'2 3.3
2018-May-24 17:29N 29°37' W 094°58'0 0.0
2018-May-24 17:00N 29°37' W 094°58'1 1.5
2018-May-24 16:30N 29°37' W 094°57'0 0.8
2018-May-24 15:58N 29°37' W 094°58'0 0.8
2018-May-24 15:30N 29°37' W 094°58'0 0.2
2018-May-24 15:00N 29°37' W 094°58'0 0.2
2018-May-24 14:30N 29°37' W 094°58'1 1.8
2018-May-24 13:59N 29°38' W 094°57'0 0.0
2018-May-24 13:28N 29°38' W 094°57'0 0.0
2018-May-24 08:46N 29°38' W 094°57'0 0.0
2018-May-24 08:30N 29°38' W 094°57'0 0.0
2018-May-24 08:00N 29°38' W 094°57'0 0.0
2018-May-24 07:19N 29°38' W 094°57'0 0.0
2018-May-24 06:59N 29°38' W 094°57'0 0.0
2018-May-24 06:14N 29°38' W 094°57'0 0.0
2018-May-24 05:49N 29°38' W 094°57'0 0.0
2018-May-24 05:27N 29°38' W 094°57'0 0.0
2018-May-24 04:57N 29°38' W 094°57'0 0.0
2018-May-24 04:25N 29°38' W 094°57'0 0.0
2018-May-24 03:57N 29°38' W 094°57'0 0.0
2018-May-24 03:16N 29°38' W 094°57'0 0.0
2018-May-24 03:00N 29°38' W 094°57'0 0.0
2018-May-24 02:30N 29°38' W 094°57'0 0.0
2018-May-24 01:47N 29°38' W 094°57'0 0.0
2018-May-24 01:22N 29°38' W 094°57'0 0.0
2018-May-24 00:56N 29°38' W 094°57'0 0.0
2018-May-24 00:30N 29°38' W 094°57'0 0.0
2018-May-24 00:00N 29°38' W 094°57'0 0.0
2018-May-23 23:30N 29°38' W 094°57'0 0.0
2018-May-23 22:54N 29°38' W 094°57'0 0.0
2018-May-23 22:30N 29°38' W 094°57'0 0.0
2018-May-23 21:56N 29°38' W 094°57'0 0.2
2018-May-23 21:30N 29°38' W 094°57'2 3.8
2018-May-23 21:00N 29°37' W 094°59'0 1.0
2018-May-23 20:30N 29°37' W 094°60'0 0.0
2018-May-23 20:00N 29°37' W 094°60'1 1.3
2018-May-23 19:30N 29°37' W 095°01'0 0.4
2018-May-23 19:00N 29°37' W 095°01'1 1.7
2018-May-23 18:29N 29°37' W 094°60'2 4.3
2018-May-23 18:00N 29°38' W 094°58'0 0.2
2018-May-23 17:30N 29°38' W 094°58'1 2.0
2018-May-23 16:59N 29°37' W 094°57'0 0.0
2018-May-23 16:30N 29°37' W 094°57'0 0.7
2018-May-23 15:57N 29°37' W 094°57'1 1.2
2018-May-23 15:30N 29°37' W 094°56'0 0.5
2018-May-23 14:59N 29°37' W 094°56'0 0.2
2018-May-23 14:30N 29°37' W 094°57'1 1.0
2018-May-23 14:00N 29°37' W 094°57'1 2.2
2018-May-23 13:29N 29°38' W 094°58'1 1.7
2018-May-23 13:00N 29°37' W 094°58'2 3.8
2018-May-23 12:30N 29°37' W 094°60'1 2.5
2018-May-23 12:00N 29°37' W 094°58'1 1.9
2018-May-23 11:30N 29°37' W 094°59'0 0.7
2018-May-23 10:58N 29°37' W 094°60'0 0.0
2018-May-23 10:24N 29°37' W 094°60'0 0.0
2018-May-23 09:57N 29°37' W 094°60'0 0.0
2018-May-23 09:27N 29°37' W 094°60'0 0.0
2018-May-23 08:56N 29°37' W 094°60'0 0.0
2018-May-23 08:25N 29°37' W 094°60'0 0.0
2018-May-23 07:41N 29°37' W 094°60'0 0.0
2018-May-23 07:22N 29°37' W 094°60'0 0.0
2018-May-23 06:53N 29°37' W 094°60'0 0.0
2018-May-23 06:28N 29°37' W 094°60'0 0.0
2018-May-23 06:00N 29°37' W 094°60'0 0.0
2018-May-23 05:20N 29°37' W 094°60'0 0.0
2018-May-23 04:37N 29°37' W 094°60'0 0.0
2018-May-23 04:21N 29°37' W 094°60'0 0.0
2018-May-23 04:00N 29°37' W 094°60'0 0.0
2018-May-23 03:30N 29°37' W 094°60'0 0.0
2018-May-23 02:58N 29°37' W 094°60'0 0.0
2018-May-23 02:30N 29°37' W 094°60'0 0.0
2018-May-23 02:00N 29°37' W 094°60'1 2.3
2018-May-23 01:30N 29°37' W 094°59'1 2.2
2018-May-23 01:00N 29°37' W 094°60'0 0.0
2018-May-23 00:30N 29°37' W 094°60'0 0.0
2018-May-22 23:59N 29°37' W 094°60'0 0.0
2018-May-22 23:30N 29°37' W 094°60'1 1.4
2018-May-22 23:00N 29°37' W 094°59'0 0.9
2018-May-22 22:30N 29°37' W 094°60'0 0.5
2018-May-22 22:00N 29°37' W 094°60'0 0.0
2018-May-22 21:30N 29°37' W 094°60'0 0.0
2018-May-22 20:59N 29°37' W 094°60'0 0.0
2018-May-22 20:30N 29°37' W 094°60'0 0.0
2018-May-22 20:00N 29°37' W 094°60'0 0.0
2018-May-22 19:30N 29°37' W 094°60'0 0.0
2018-May-22 19:00N 29°37' W 094°60'0 0.0
2018-May-22 18:30N 29°37' W 094°60'0 0.0
2018-May-22 18:00N 29°37' W 094°60'0 0.0
2018-May-22 17:30N 29°37' W 094°60'0 0.0
2018-May-22 17:00N 29°37' W 094°60'2 4.3
2018-May-22 16:29N 29°37' W 094°57'0 0.1
2018-May-22 15:57N 29°37' W 094°57'2 5.0
2018-May-22 15:30N 29°37' W 094°60'0 0.0
2018-May-22 15:00N 29°37' W 094°60'0 0.0
2018-May-22 14:28N 29°37' W 094°60'0 0.0
2018-May-22 13:59N 29°37' W 094°60'0 0.0
2018-May-22 13:30N 29°37' W 094°60'0 0.0
2018-May-22 13:00N 29°37' W 094°60'0 0.0
2018-May-22 12:30N 29°37' W 094°60'0 0.0
2018-May-22 12:00N 29°37' W 094°60'2 3.3
2018-May-22 11:30N 29°37' W 094°58'2 3.2
2018-May-22 11:00N 29°37' W 094°60'0 0.0
2018-May-22 10:30N 29°37' W 094°60'0 0.0
2018-May-22 10:00N 29°37' W 094°60'0 0.0
2018-May-22 09:29N 29°37' W 094°60'0 0.0
2018-May-22 09:00N 29°37' W 094°60'0 0.0
2018-May-22 08:29N 29°37' W 094°60'0 0.0
2018-May-22 08:00N 29°37' W 094°60'0 0.0
2018-May-22 07:29N 29°37' W 094°60'0 0.0
2018-May-22 07:00N 29°37' W 094°60'0 0.0
2018-May-22 06:30N 29°37' W 094°60'0 0.0
2018-May-22 05:57N 29°37' W 094°60'0 0.0
2018-May-22 05:30N 29°37' W 094°60'0 0.0
2018-May-22 05:00N 29°37' W 094°60'0 0.0
2018-May-22 04:30N 29°37' W 094°60'0 0.0
2018-May-22 04:00N 29°37' W 094°60'0 0.0
2018-May-22 03:30N 29°37' W 094°60'0 0.0
2018-May-22 03:00N 29°37' W 094°60'0 0.0
2018-May-22 02:30N 29°37' W 094°60'0 0.0
2018-May-22 02:00N 29°37' W 094°60'0 0.0
2018-May-22 01:30N 29°37' W 094°60'0 0.0
2018-May-22 01:00N 29°37' W 094°60'0 0.0
2018-May-22 00:29N 29°37' W 094°60'2 3.4
2018-May-22 00:00N 29°37' W 094°58'2 3.2
2018-May-21 23:30N 29°37' W 094°60'0 0.0
2018-May-21 23:00N 29°37' W 094°60'0 0.0
2018-May-21 22:28N 29°37' W 094°60'0 0.0
2018-May-21 21:59N 29°37' W 094°60'0 0.0
2018-May-21 21:30N 29°37' W 094°60'0 0.0
2018-May-21 20:31N 29°37' W 094°60'0 0.0
2018-May-21 20:26N 29°37' W 094°60'2 4.1
2018-May-21 19:58N 29°37' W 094°58'0 0.7
2018-May-21 19:28N 29°37' W 094°57'0 0.8
2018-May-21 19:00N 29°37' W 094°57'0 0.9
2018-May-21 18:29N 29°38' W 094°57'1 2.1
2018-May-21 18:00N 29°37' W 094°58'2 2.3
2018-May-21 17:20N 29°37' W 094°60'0 0.2
2018-May-21 17:00N 29°37' W 094°60'2 4.3
2018-May-21 16:30N 29°37' W 094°57'0 0.0
2018-May-21 16:00N 29°37' W 094°57'2 4.2
2018-May-21 15:29N 29°37' W 094°60'0 0.0
2018-May-21 15:00N 29°37' W 094°60'0 0.0
2018-May-21 14:29N 29°37' W 094°60'2 3.7
2018-May-21 13:54N 29°37' W 094°57'0 0.2
2018-May-21 13:30N 29°37' W 094°57'2 4.3
2018-May-21 13:00N 29°37' W 094°60'0 0.1
2018-May-21 12:30N 29°37' W 094°60'1 2.0
2018-May-21 12:00N 29°37' W 095°01'2 4.1
2018-May-21 11:30N 29°37' W 094°59'1 2.3
2018-May-21 11:00N 29°37' W 094°57'0 0.0
2018-May-21 10:30N 29°37' W 094°57'0 0.0
2018-May-21 10:00N 29°37' W 094°57'0 0.0
2018-May-21 09:30N 29°37' W 094°57'0 0.0
2018-May-21 09:00N 29°37' W 094°57'0 0.0
2018-May-21 08:30N 29°37' W 094°57'0 0.0
2018-May-21 08:00N 29°37' W 094°57'0 0.0
2018-May-21 07:30N 29°37' W 094°57'0 0.0
2018-May-21 07:00N 29°37' W 094°57'0 0.0
2018-May-21 06:30N 29°37' W 094°57'0 0.0
2018-May-21 06:00N 29°37' W 094°57'0 0.0
2018-May-21 05:30N 29°37' W 094°57'0 0.0
2018-May-21 05:00N 29°37' W 094°57'0 0.0
2018-May-21 04:30N 29°37' W 094°57'0 0.3
2018-May-21 04:00N 29°37' W 094°57'1 1.9
2018-May-21 03:30N 29°38' W 094°57'1 1.8
2018-May-21 03:00N 29°37' W 094°57'1 2.3
2018-May-21 02:30N 29°37' W 094°59'2 3.5
2018-May-21 02:00N 29°37' W 095°01'0 0.3
2018-May-21 01:30N 29°37' W 095°01'0 0.1
2018-May-21 00:58N 29°37' W 095°01'0 0.1
2018-May-21 00:29N 29°37' W 095°01'0 0.1
2018-May-21 00:00N 29°37' W 095°01'0 0.0
2018-May-20 23:30N 29°37' W 095°01'0 0.0
2018-May-20 23:00N 29°37' W 095°01'0 0.0
2018-May-20 22:20N 29°37' W 095°01'0 0.0
2018-May-20 22:00N 29°37' W 095°01'0 0.0
2018-May-20 21:30N 29°37' W 095°01'0 0.0
2018-May-20 20:43N 29°37' W 095°01'0 0.0
2018-May-20 20:24N 29°37' W 095°01'0 0.0
2018-May-20 20:00N 29°37' W 095°01'0 0.0
2018-May-20 19:30N 29°37' W 095°01'0 0.0
2018-May-20 19:00N 29°37' W 095°01'0 0.0
2018-May-20 18:30N 29°37' W 095°01'0 0.0
2018-May-20 18:00N 29°37' W 095°01'1 1.1
2018-May-20 17:30N 29°37' W 095°00'0 0.0
2018-May-20 17:00N 29°37' W 095°00'0 0.0
2018-May-20 16:30N 29°37' W 095°00'0 0.0
2018-May-20 16:00N 29°37' W 095°00'1 1.1
2018-May-20 15:30N 29°37' W 095°01'0 0.0
2018-May-20 15:00N 29°37' W 095°01'0 0.0
2018-May-20 14:30N 29°37' W 095°01'0 0.0
2018-May-20 13:40N 29°37' W 095°01'0 0.0
2018-May-20 13:23N 29°37' W 095°01'0 0.0
2018-May-20 13:00N 29°37' W 095°01'0 0.0
2018-May-20 12:30N 29°37' W 095°01'0 0.0
2018-May-20 12:00N 29°37' W 095°01'0 0.0
2018-May-20 11:26N 29°37' W 095°01'0 0.1
2018-May-20 11:00N 29°37' W 095°01'0 0.0
2018-May-20 10:30N 29°37' W 095°01'0 0.0
2018-May-20 10:01N 29°37' W 095°01'0 0.0
2018-May-20 09:31N 29°37' W 095°01'0 0.0
2018-May-20 09:01N 29°37' W 095°01'0 0.0
2018-May-20 08:30N 29°37' W 095°01'0 0.0
2018-May-20 08:00N 29°37' W 095°01'0 0.0
2018-May-20 07:31N 29°37' W 095°01'1 1.7
2018-May-20 07:01N 29°37' W 094°60'0 0.7
2018-May-20 06:31N 29°37' W 095°00'0 0.0
2018-May-20 06:01N 29°37' W 095°00'0 0.0
2018-May-20 05:30N 29°37' W 095°00'0 0.0
2018-May-20 05:01N 29°37' W 095°00'0 0.6
2018-May-20 04:30N 29°37' W 094°60'1 1.6
2018-May-20 04:01N 29°37' W 095°01'0 0.0
2018-May-20 03:30N 29°37' W 095°01'0 0.0
2018-May-20 03:01N 29°37' W 095°01'0 0.0
2018-May-20 02:31N 29°37' W 095°01'0 0.0
2018-May-20 02:00N 29°37' W 095°01'0 0.0
2018-May-20 01:30N 29°37' W 095°01'0 0.0
2018-May-20 01:01N 29°37' W 095°01'0 0.0
2018-May-20 00:30N 29°37' W 095°01'0 0.0
2018-May-20 00:00N 29°37' W 095°01'0 0.0
2018-May-19 23:31N 29°37' W 095°01'0 0.0
2018-May-19 23:01N 29°37' W 095°01'0 0.0
2018-May-19 22:31N 29°37' W 095°01'0 0.0
2018-May-19 22:00N 29°37' W 095°01'0 0.0
2018-May-19 21:31N 29°37' W 095°01'0 0.0
2018-May-19 21:01N 29°37' W 095°01'0 0.0
2018-May-19 20:29N 29°37' W 095°01'0 0.0
2018-May-19 20:00N 29°37' W 095°01'0 0.0
2018-May-19 19:31N 29°37' W 095°01'0 0.0
2018-May-19 19:00N 29°37' W 095°01'0 0.0
2018-May-19 18:31N 29°37' W 095°01'0 0.0
2018-May-19 18:01N 29°37' W 095°01'0 0.0
2018-May-19 17:31N 29°37' W 095°01'0 0.0
2018-May-19 17:01N 29°37' W 095°01'0 0.0
2018-May-19 16:30N 29°37' W 095°01'0 0.0
2018-May-19 15:59N 29°37' W 095°01'0 0.0
2018-May-19 15:29N 29°37' W 095°01'0 0.0
2018-May-19 15:01N 29°37' W 095°01'0 0.0
2018-May-19 14:30N 29°37' W 095°01'0 0.0
2018-May-19 14:01N 29°37' W 095°01'0 0.0
2018-May-19 13:30N 29°37' W 095°01'0 0.0
2018-May-19 13:00N 29°37' W 095°01'0 0.1
2018-May-19 12:28N 29°37' W 095°01'0 0.0
2018-May-19 12:00N 29°37' W 095°01'0 0.0
2018-May-19 11:31N 29°37' W 095°01'0 0.0
2018-May-19 11:01N 29°37' W 095°01'0 0.0
2018-May-19 10:31N 29°37' W 095°01'0 0.0
2018-May-19 10:01N 29°37' W 095°01'1 1.3
2018-May-19 09:31N 29°37' W 095°00'0 0.0
2018-May-19 08:59N 29°37' W 095°00'0 0.0
2018-May-19 08:30N 29°37' W 095°00'0 0.0
2018-May-19 08:01N 29°37' W 095°00'1 1.3
2018-May-19 07:30N 29°37' W 095°01'0 0.0
2018-May-19 07:01N 29°37' W 095°01'0 0.0
2018-May-19 06:31N 29°37' W 095°01'0 0.0
2018-May-19 06:01N 29°37' W 095°01'0 0.0
2018-May-19 05:31N 29°37' W 095°01'0 0.0
2018-May-19 05:01N 29°37' W 095°01'1 1.3
2018-May-19 04:31N 29°37' W 095°00'0 0.0
2018-May-19 04:00N 29°37' W 095°00'1 1.3
2018-May-19 03:31N 29°37' W 095°01'0 0.0
2018-May-19 03:01N 29°37' W 095°01'0 0.0
2018-May-19 02:31N 29°37' W 095°01'0 0.1
2018-May-19 02:00N 29°37' W 095°01'3 5.9
2018-May-19 01:30N 29°38' W 094°58'6 0.7
2018-May-18 16:26N 29°43' W 095°01'4 8.1
2018-May-18 15:59N 29°40' W 094°59'3 7.2
2018-May-18 15:30N 29°37' W 094°59'2 3.6
2018-May-18 14:59N 29°37' W 095°01'0 0.0
2018-May-18 14:31N 29°37' W 095°01'0 0.0
2018-May-18 14:01N 29°37' W 095°01'0 0.1
2018-May-18 13:30N 29°37' W 095°01'1 1.7
2018-May-18 13:00N 29°37' W 094°60'0 0.0
2018-May-18 12:30N 29°37' W 094°60'0 0.0
2018-May-18 12:01N 29°37' W 094°60'0 0.0
2018-May-18 11:30N 29°37' W 094°60'0 0.0
2018-May-18 11:01N 29°37' W 094°60'0 0.0
2018-May-18 10:29N 29°37' W 094°60'0 0.0
2018-May-18 10:00N 29°37' W 094°60'0 0.0
2018-May-18 09:30N 29°37' W 094°60'0 0.0
2018-May-18 08:59N 29°37' W 094°60'0 0.0
2018-May-18 08:30N 29°37' W 094°60'0 0.0
2018-May-18 08:01N 29°37' W 094°60'0 0.0
2018-May-18 07:29N 29°37' W 094°60'0 0.0
2018-May-18 07:00N 29°37' W 094°60'0 0.1
2018-May-18 06:30N 29°37' W 094°60'0 0.0
2018-May-18 06:00N 29°37' W 094°60'0 0.0
2018-May-18 05:27N 29°37' W 094°60'0 0.0
2018-May-18 05:00N 29°37' W 094°60'0 0.0
2018-May-18 04:30N 29°37' W 094°60'0 0.1
2018-May-18 04:00N 29°37' W 094°60'0 0.0
2018-May-18 03:29N 29°37' W 094°60'0 0.0
2018-May-18 03:00N 29°37' W 094°60'0 0.0
2018-May-18 02:30N 29°37' W 094°60'1 2.5
2018-May-18 02:00N 29°37' W 094°58'1 2.4
2018-May-18 01:30N 29°38' W 094°57'1 2.9
2018-May-18 01:00N 29°37' W 094°59'2 3.8
2018-May-18 00:30N 29°37' W 095°01'1 2.5
2018-May-18 00:00N 29°37' W 094°59'2 3.7
2018-May-17 23:30N 29°37' W 094°57'0 0.5
2018-May-17 22:54N 29°36' W 094°57'0 0.9
2018-May-17 22:30N 29°37' W 094°57'0 0.8
2018-May-17 22:00N 29°36' W 094°57'0 0.2
2018-May-17 21:30N 29°36' W 094°57'0 0.1
2018-May-17 20:59N 29°36' W 094°57'0 0.0
2018-May-17 20:30N 29°36' W 094°57'0 0.0
2018-May-17 19:59N 29°36' W 094°57'0 0.0
2018-May-17 19:29N 29°36' W 094°57'0 0.0
2018-May-17 18:57N 29°36' W 094°57'1 1.3
2018-May-17 18:29N 29°37' W 094°57'1 1.7
2018-May-17 18:00N 29°38' W 094°57'0 0.0
2018-May-17 17:30N 29°38' W 094°57'0 0.3
2018-May-17 16:59N 29°38' W 094°57'1 1.5
2018-May-17 16:05N 29°36' W 094°57'0 0.0
2018-May-17 15:52N 29°36' W 094°57'1 2.7
2018-May-17 15:31N 29°37' W 094°57'0 0.0
2018-May-17 15:01N 29°37' W 094°57'0 0.0
2018-May-17 14:30N 29°37' W 094°57'0 0.5
2018-May-17 14:01N 29°37' W 094°57'2 4.0
2018-May-17 13:30N 29°37' W 094°60'0 0.1
2018-May-17 13:00N 29°37' W 094°60'2 3.3
2018-May-17 12:30N 29°37' W 094°58'1 1.8
2018-May-17 12:00N 29°38' W 094°57'1 1.5
2018-May-17 11:31N 29°37' W 094°57'1 0.6
2018-May-17 10:15N 29°38' W 094°57'0 0.0
2018-May-17 09:53N 29°38' W 094°57'0 0.0
2018-May-17 09:27N 29°38' W 094°57'0 0.0
2018-May-17 08:33N 29°38' W 094°57'0 0.0
2018-May-17 08:15N 29°38' W 094°57'0 0.0
2018-May-17 07:49N 29°38' W 094°57'0 0.0
2018-May-17 06:41N 29°38' W 094°57'0 0.0
2018-May-17 06:29N 29°38' W 094°57'0 0.0
2018-May-17 05:53N 29°38' W 094°57'0 0.0
2018-May-17 05:30N 29°38' W 094°57'0 0.0
2018-May-17 05:00N 29°38' W 094°57'0 0.0
2018-May-17 04:20N 29°38' W 094°57'0 0.0
2018-May-17 03:55N 29°38' W 094°57'0 0.0
2018-May-17 03:31N 29°38' W 094°57'0 0.0
2018-May-17 03:00N 29°38' W 094°57'0 0.0
2018-May-17 02:27N 29°38' W 094°57'1 2.7
2018-May-17 02:00N 29°36' W 094°57'2 4.8
2018-May-17 01:31N 29°37' W 094°60'0 0.0
2018-May-17 01:01N 29°37' W 094°60'0 0.0
2018-May-17 00:30N 29°37' W 094°60'0 0.0
2018-May-17 00:00N 29°37' W 094°60'0 0.0
2018-May-16 23:30N 29°37' W 094°60'2 4.2
2018-May-16 23:01N 29°37' W 094°57'2 3.0
2018-May-16 22:30N 29°37' W 094°59'2 3.0
2018-May-16 22:00N 29°38' W 094°58'0 0.5
2018-May-16 21:25N 29°38' W 094°57'0 0.0
2018-May-16 21:00N 29°38' W 094°57'0 0.0
2018-May-16 20:22N 29°38' W 094°57'0 0.0
2018-May-16 20:00N 29°38' W 094°57'0 0.0
2018-May-16 19:27N 29°38' W 094°57'0 0.0
2018-May-16 18:59N 29°38' W 094°57'0 0.0
2018-May-16 18:31N 29°38' W 094°57'0 0.0
2018-May-16 17:59N 29°38' W 094°57'0 0.0
2018-May-16 17:25N 29°38' W 094°57'0 0.3
2018-May-16 16:59N 29°38' W 094°57'1 2.6
2018-May-16 16:29N 29°36' W 094°57'0 0.0
2018-May-16 16:00N 29°36' W 094°57'0 0.0
2018-May-16 15:31N 29°36' W 094°57'2 3.3
2018-May-16 14:47N 29°37' W 094°60'1 2.3
2018-May-16 14:31N 29°37' W 094°59'2 3.6
2018-May-16 14:00N 29°38' W 094°57'0 0.0
2018-May-16 13:30N 29°38' W 094°57'0 0.0
2018-May-16 13:00N 29°38' W 094°57'0 0.0
2018-May-16 12:30N 29°38' W 094°57'0 0.0
2018-May-16 12:00N 29°38' W 094°57'1 1.3
2018-May-16 11:31N 29°37' W 094°57'2 4.3
2018-May-16 11:00N 29°37' W 094°60'0 0.0
2018-May-16 10:30N 29°37' W 094°60'0 0.0
2018-May-16 10:01N 29°37' W 094°60'0 0.0
2018-May-16 09:30N 29°37' W 094°60'0 0.0
2018-May-16 09:00N 29°37' W 094°60'0 0.0
2018-May-16 07:41N 29°37' W 094°60'0 0.0
2018-May-16 07:30N 29°37' W 094°60'0 0.0
2018-May-16 07:00N 29°37' W 094°60'0 0.0
2018-May-16 06:30N 29°37' W 094°60'0 0.0
2018-May-16 06:00N 29°37' W 094°60'0 0.0
2018-May-16 05:30N 29°37' W 094°60'0 0.0
2018-May-16 05:00N 29°37' W 094°60'0 0.0
2018-May-16 04:30N 29°37' W 094°60'0 0.0
2018-May-16 04:00N 29°37' W 094°60'0 0.0
2018-May-16 03:30N 29°37' W 094°60'0 0.0
2018-May-16 03:00N 29°37' W 094°60'0 0.0
2018-May-16 02:29N 29°37' W 094°60'0 0.0
2018-May-16 02:00N 29°37' W 094°60'0 0.0
2018-May-16 01:30N 29°37' W 094°60'0 0.0
2018-May-16 01:00N 29°37' W 094°60'0 0.0
2018-May-16 00:30N 29°37' W 094°60'0 0.0
2018-May-16 00:00N 29°37' W 094°60'0 0.0
2018-May-15 23:30N 29°37' W 094°60'0 0.8
2018-May-15 23:00N 29°37' W 094°59'2 3.9
2018-May-15 22:30N 29°38' W 094°57'0 0.2
2018-May-15 22:00N 29°38' W 094°57'0 0.1
2018-May-15 21:30N 29°38' W 094°57'0 0.4
2018-May-15 21:00N 29°38' W 094°57'2 4.7
2018-May-15 20:30N 29°37' W 094°60'0 0.0
2018-May-15 20:00N 29°37' W 094°60'0 0.0
2018-May-15 19:27N 29°37' W 094°60'0 0.0
2018-May-15 19:00N 29°37' W 094°60'2 4.2
2018-May-15 18:30N 29°37' W 094°58'0 1.0
2018-May-15 18:00N 29°38' W 094°57'1 2.4
2018-May-15 17:30N 29°36' W 094°57'0 0.2
2018-May-15 17:00N 29°37' W 094°57'0 0.5
2018-May-15 16:26N 29°37' W 094°57'0 0.1
2018-May-15 16:00N 29°37' W 094°57'1 2.1
2018-May-15 15:26N 29°38' W 094°57'0 0.3
2018-May-15 14:46N 29°38' W 094°58'0 0.7
2018-May-15 14:26N 29°38' W 094°57'1 2.9
2018-May-15 14:00N 29°37' W 094°57'1 2.2
2018-May-15 13:30N 29°38' W 094°57'0 0.0
2018-May-15 13:00N 29°38' W 094°57'0 0.0
2018-May-15 12:30N 29°38' W 094°57'0 0.0
2018-May-15 12:00N 29°38' W 094°57'0 0.1
2018-May-15 11:30N 29°38' W 094°57'0 0.7
2018-May-15 11:00N 29°37' W 094°57'0 0.6
2018-May-15 10:29N 29°38' W 094°57'0 0.0
2018-May-15 10:00N 29°38' W 094°57'0 0.0
2018-May-15 09:30N 29°38' W 094°57'0 0.0
2018-May-15 09:00N 29°38' W 094°57'0 0.0
2018-May-15 08:30N 29°38' W 094°57'0 0.0
2018-May-15 08:00N 29°38' W 094°57'0 0.0
2018-May-15 07:29N 29°38' W 094°57'0 0.0
2018-May-15 07:00N 29°38' W 094°57'0 0.0
2018-May-15 06:30N 29°38' W 094°57'0 0.0
2018-May-15 06:00N 29°38' W 094°57'0 0.0
2018-May-15 05:30N 29°38' W 094°57'0 0.0
2018-May-15 05:00N 29°38' W 094°57'0 0.0
2018-May-15 04:30N 29°38' W 094°57'0 0.0
2018-May-15 04:00N 29°38' W 094°57'0 0.0
2018-May-15 03:30N 29°38' W 094°57'0 0.0
2018-May-15 03:00N 29°38' W 094°57'0 0.0
2018-May-15 02:30N 29°38' W 094°57'0 0.0
2018-May-15 02:00N 29°38' W 094°57'0 0.0
2018-May-15 01:30N 29°38' W 094°57'0 0.0
2018-May-15 01:00N 29°38' W 094°57'0 0.0
2018-May-15 00:30N 29°38' W 094°57'  

Dump ship's entire track history